x

Buoy B01 - Western Maine Shelf (44030) Weather Station

12:04 - Tue 26th Sep 2017 All times are EDT. -4 hours from GMT.

  • Wind
    9mph, 9mph gusts
  • Sea Temp 64°f
  • Ar Temp 64°f
  • Sea Pressure 1018.2mb
  • Buoy B01 - Western Maine Shelf
  • Buoy B01 - Western Maine Shelf

More Historic Weather Station data

Upgrade to MSW Pro to gain access to the past 30 days of data for over 8000 Wavebouys and Weather Stations around the globe.

Join

Comparision Forecast

View Surf forecast
   
Ter 09/26 12:04  -   -  9 9 mph 1018.2mb 64f 64f
Seg 09/25 11:04 4ft 11s 4 4 mph 1018.3mb 64f 64f
10:04 4ft 11s 7 7 mph 1018.6mb 63f 64f
9:04 4.5ft 16s 4 4 mph 1018.8mb 64f 64f
8:04  -   -  2 4 mph 1018.5mb 64f 65f
7:04 4.5ft 11s 4 4 mph 1018mb 64f 65f
6:04 4ft 11s 7 9 mph 1017.9mb 64f 66f
5:04 3.5ft 11s 7 9 mph 1017.9mb 64f 67f
4:04 4.5ft 11s 7 9 mph 1018.2mb 64f 68f
3:04  -   -  4 7 mph 1018.4mb 63f 68f
2:04 3.5ft 11s 4 4 mph 1018.7mb 65f 67f
1:04 3.5ft 11s 4 7 mph 1019.1mb 64f 67f
12:04 3.5ft 11s 4 4 mph 1019.3mb 63f 68f
11:04 3.5ft 11s 2 2 mph 1019.6mb 62f 67f
10:04 3ft 11s 4 4 mph 1019.5mb 62f 65f
9:04 4.5ft 16s 4 4 mph 1019.3mb 62f 64f
8:04 3.5ft 11s 2 2 mph 1018.9mb 61f 65f
7:04 4ft 11s 4 7 mph 1018.6mb 61f 63f
6:04 3.5ft 11s 2 4 mph 1017.8mb 61f 63f
5:04 3.5ft 11s 2 4 mph 1017.4mb 62f 63f
4:04 3ft 11s 2 4 mph 1016.9mb 62f 63f
3:04 2.5ft 11s 2 4 mph 1016.8mb 62f 64f
2:04 3.5ft 11s 4 4 mph 1017.1mb 62f 64f
1:04 3.5ft 8s 4 7 mph 1017.2mb 62f 64f
12:04 4ft 11s 4 7 mph 1017.3mb 62f 64f
Dom 09/24 11:04 3.5ft 11s 7 9 mph 1017.5mb 62f 65f
10:04 3.5ft 11s 7 9 mph 1017.4mb 62f 64f
9:04 4ft 11s 7 7 mph 1017.1mb 62f 65f
8:04 3.5ft 11s 4 4 mph 1017.1mb 62f 65f
7:04 3.5ft 11s 7 7 mph 1016.5mb 63f 65f
6:04 3.5ft 11s 7 9 mph 1016.4mb 63f 65f
5:04 4ft 11s 9 9 mph 1016.1mb 63f 66f
4:04 3.5ft 11s 9 9 mph 1016.4mb 65f 67f
3:04  -   -  4 7 mph 1016.8mb 64f 68f
2:04 3.5ft 11s 7 7 mph 1017mb 63f 68f
1:04 3.5ft 11s 4 7 mph 1017.4mb 62f 70f
12:04 3.5ft 11s 2 2 mph 1017.9mb 61f 72f
11:04 3ft 8s 4 4 mph 1018.1mb 61f 68f
10:04 3.5ft 11s 4 4 mph 1018.3mb 61f 66f
9:04 3.5ft 11s 2 4 mph 1018.5mb 60f 64f
8:04 3.5ft 11s 2 4 mph 1018.2mb 61f 64f
7:04 3.5ft 11s 4 7 mph 1018.2mb 61f 62f
6:04 3.5ft 11s 4 4 mph 1017.6mb 61f 62f
5:04 4ft 11s 2 4 mph 1017.2mb 61f 62f
4:04 4ft 11s 2 4 mph 1016.9mb 60f 61f
3:04 3.5ft 16s 2 4 mph 1016.4mb 60f 62f
2:04 3.5ft 8s 4 4 mph 1016.7mb 61f 62f
1:04 3.5ft 8s 4 4 mph 1016.7mb 61f 62f
12:04 3.5ft 8s 7 7 mph 1016.9mb 61f 63f
Sáb 09/23 11:04 3.5ft 8s 7 7 mph 1017.1mb 61f 63f
10:04 3.5ft 8s 7 9 mph 1017.2mb 61f 62f
9:04 4.5ft 8s 7 7 mph 1017mb 61f 62f
8:04 4ft 8s 4 7 mph 1016.9mb 62f 62f
6:04 4.5ft 11s 4 4 mph 1016.4mb 62f 64f
4:04 5ft 8s 4 7 mph 1016.3mb 62f 63f
3:04 5ft 8s 7 9 mph 1016.6mb 62f 63f
2:04 5ft 8s 4 7 mph 1016.8mb 61f 63f
1:04 6ft 8s 4 7 mph 1016.9mb 61f 63f
12:04 6ft 8s 7 9 mph 1017.2mb 60f 63f
10:04 6ft 8s 9 11 mph 1017.8mb 60f 62f
9:04 6ft 8s 9 9 mph 1017.8mb 60f 62f
8:04 5.5ft 8s 11 13 mph 1017.2mb 60f 61f
7:04 6ft 8s 9 9 mph 1016.9mb 60f 61f
6:04 7ft 8s 11 13 mph 1016.5mb 60f 62f
5:04 6.5ft 11s 9 9 mph 1016.6mb 60f 62f
4:04 7ft 11s 11 13 mph 1016.6mb 60f 62f
3:04 6.5ft 8s 13 16 mph 1016.9mb 60f 63f
2:04 7.5ft 8s 16 18 mph 1016.9mb 60f 62f
12:04 8.5ft 8s 13 16 mph 1017.4mb 60f 62f
Sex 09/22 11:04 9ft 11s 16 18 mph 1017.7mb 60f 61f
10:04 9.5ft 11s 11 16 mph 1017.6mb 60f 61f
9:04  -   -  18 22 mph 1017.5mb 60f 62f
7:04 11ft 11s 20 25 mph 1017.7mb 60f 60f
6:04  -   -  20 25 mph 1017.6mb 60f 62f
5:04 10ft 11s 20 25 mph 1017.4mb 60f 64f
4:04 10ft 11s 18 22 mph 1017.4mb 60f 63f
3:04 10ft 11s 18 22 mph 1017.2mb 60f 61f
2:04 11.5ft 11s 18 20 mph 1017.5mb 60f 61f
1:04 10ft 11s 22 31 mph 1018.1mb 60f 61f
12:04 11ft 11s 27 31 mph 1018.2mb 60f 60f
11:04 12ft 11s 25 29 mph 1018.7mb 60f 60f
10:04 11ft 11s 27 31 mph 1018.5mb 60f 59f
9:04 12ft 11s 25 31 mph 1018.7mb 60f 59f
8:04 11.5ft 11s 25 31 mph 1018.7mb 60f 59f
7:04 12ft 11s 25 31 mph 1018.4mb 60f 60f
6:04 10ft 11s 25 29 mph 1017.9mb 61f 60f